Time;durP1;ratioP1;P1;durP2;ratioP2;P2;SDS_P1;SDS_P2;PMS_P1;PMS_P2;Temp;Humidity;BMP_temperature;BMP_pressure;BME280_temperature;BME280_humidity;BME280_pressure;Samples;Min_cycle;Max_cycle;Signal;HPM_P1;HPM_P2
2022/12/19 00:00:26;;;;;;;;;;;;;;;;;;7371227;19;997;-62
2022/12/19 00:02:55;;;;;;;;;;;;;;;;;;7371495;19;776;-63
2022/12/19 00:05:23;;;;;;;;;;;;;;;;;;7371322;19;871;-63
2022/12/19 00:07:52;;;;;;;;;;;;;;;;;;7369694;19;1325;-62
2022/12/19 00:10:20;;;;;;;;;;;;;;;;;;7371104;19;780;-63
2022/12/19 00:12:48;;;;;;;;;;;;;;;;;;7368693;19;1853;-63
2022/12/19 00:15:16;;;;;;;;;;;;;;;;;;7371704;19;1888;-60
2022/12/19 00:17:44;;;;;;;;;;;;;;;;;;7369739;19;1265;-62
2022/12/19 00:20:13;;;;;;;;;;;;;;;;;;7371323;19;943;-64
2022/12/19 00:22:41;;;;;;;;;;;;;;;;;;7369564;19;800;-63
2022/12/19 00:25:09;;;;;;;;;;;;;;;;;;7369789;19;847;-63
2022/12/19 00:27:37;;;;;;;;;;;;;;;;;;7369473;19;1247;-63
2022/12/19 00:30:05;;;;;;;;;;;;;;;;;;7375760;19;1908;-63
2022/12/19 00:32:33;;;;;;;;;;;;;;;;;;7370309;19;1841;-63
2022/12/19 00:35:02;;;;;;;;;;;;;;;;;;7368480;19;849;-63
2022/12/19 00:37:30;;;;;;;;;;;;;;;;;;7369086;19;1243;-63
2022/12/19 00:39:58;;;;;;;;;;;;;;;;;;7369157;19;847;-64
2022/12/19 00:42:26;;;;;;;;;;;;;;;;;;7369567;19;1851;-64
2022/12/19 00:44:54;;;;;;;;;;;;;;;;;;7369089;19;863;-63
2022/12/19 00:47:22;;;;;;;;;;;;;;;;;;7367873;19;1271;-63
2022/12/19 00:49:53;;;;;;;;;;;;;;;;;;7367526;19;754;-63
2022/12/19 00:52:22;;;;;;;;;;;;;;;;;;7369474;19;820;-64
2022/12/19 00:54:50;;;;;;;;;;;;;;;;;;7367536;19;831;-63
2022/12/19 00:57:20;;;;;;;;;;;;;;;;;;7369488;19;1892;-63
2022/12/19 00:59:48;;;;;;;;;;;;;;;;;;7366962;19;815;-59
2022/12/19 01:02:17;;;;;;;;;;;;;;;;;;7369214;19;770;-63
2022/12/19 01:04:45;;;;;;;;;;;;;;;;;;7368525;19;864;-63
2022/12/19 01:07:14;;;;;;;;;;;;;;;;;;7369633;19;1294;-64
2022/12/19 01:09:42;;;;;;;;;;;;;;;;;;7367205;19;811;-64
2022/12/19 01:14:52;;;;;;;;;;;;;;;;;;7366622;19;1853;-64
2022/12/19 01:17:20;;;;;;;;;;;;;;;;;;7366973;19;1255;-64
2022/12/19 01:19:48;;;;;;;;;;;;;;;;;;7367591;19;1871;-65
2022/12/19 01:22:17;;;;;;;;;;;;;;;;;;7367235;19;814;-64
2022/12/19 01:24:47;;;;;;;;;;;;;;;;;;7368190;19;839;-64
2022/12/19 01:27:16;;;;;;;;;;;;;;;;;;7369288;19;1988;-64
2022/12/19 01:29:44;;;;;;;;;;;;;;;;;;7366396;19;802;-64
2022/12/19 01:32:13;;;;;;;;;;;;;;;;;;7369054;19;806;-64
2022/12/19 01:34:41;;;;;;;;;;;;;;;;;;7365939;19;1838;-63
2022/12/19 01:37:09;;;;;;;;;;;;;;;;;;7368692;19;804;-64
2022/12/19 01:39:37;;;;;;;;;;;;;;;;;;7363984;19;1877;-65
2022/12/19 01:42:07;;;;;;;;;;;;;;;;;;7367709;19;1922;-65
2022/12/19 01:44:37;;;;;;;;;;;;;;;;;;7369049;19;784;-64
2022/12/19 01:47:05;;;;;;;;;;;;;;;;;;7365154;19;803;-65
2022/12/19 01:49:33;;;;;;;;;;;;;;;;;;7365420;19;1259;-64
2022/12/19 01:52:01;;;;;;;;;;;;;;;;;;7368494;19;791;-63
2022/12/19 01:54:29;;;;;;;;;;;;;;;;;;7366805;19;1930;-64
2022/12/19 01:56:57;;;;;;;;;;;;;;;;;;7367028;19;822;-64
2022/12/19 01:59:25;;;;;;;;;;;;;;;;;;7363464;19;1307;-64
2022/12/19 02:01:54;;;;;;;;;;;;;;;;;;7366912;19;779;-64
2022/12/19 02:04:23;;;;;;;;;;;;;;;;;;7367120;19;797;-64
2022/12/19 02:06:51;;;;;;;;;;;;;;;;;;7367415;19;784;-65
2022/12/19 02:09:19;;;;;;;;;;;;;;;;;;7363312;19;1232;-65
2022/12/19 02:11:48;;;;;;;;;;;;;;;;;;7369560;19;1878;-64
2022/12/19 02:14:16;;;;;;;;;;;;;;;;;;7365891;19;1935;-64
2022/12/19 02:16:45;;;;;;;;;;;;;;;;;;7366889;19;857;-64
2022/12/19 02:19:13;;;;;;;;;;;;;;;;;;7363486;19;1481;-65
2022/12/19 02:21:41;;;;;;;;;;;;;;;;;;7367795;19;803;-65
2022/12/19 02:24:09;;;;;;;;;;;;;;;;;;7366793;19;789;-64
2022/12/19 02:26:38;;;;;;;;;;;;;;;;;;7366627;19;1876;-65
2022/12/19 02:29:06;;;;;;;;;;;;;;;;;;7364022;19;1394;-65
2022/12/19 02:31:35;;;;;;;;;;;;;;;;;;7367611;19;839;-64
2022/12/19 02:34:04;;;;;;;;;;;;;;;;;;7365867;19;1835;-66
2022/12/19 02:36:35;;;;;;;;;;;;;;;;;;7363952;19;1095;-65
2022/12/19 02:39:03;;;;;;;;;;;;;;;;;;7364678;19;1796;-65
2022/12/19 02:41:42;;;;;;;;;;;;;;;;;;7370939;19;1913;-65
2022/12/19 02:44:11;;;;;;;;;;;;;;;;;;7369168;19;580;-65
2022/12/19 02:46:39;;;;;;;;;;;;;;;;;;7373419;19;767;-63
2022/12/19 02:49:07;;;;;;;;;;;;;;;;;;7371220;19;1299;-65
2022/12/19 02:51:36;;;;;;;;;;;;;;;;;;7375015;19;711;-63
2022/12/19 02:54:04;;;;;;;;;;;;;;;;;;7374161;19;1841;-63
2022/12/19 02:56:32;;;;;;;;;;;;;;;;;;7372648;19;862;-64
2022/12/19 02:59:00;;;;;;;;;;;;;;;;;;7370275;19;1286;-65
2022/12/19 03:01:29;;;;;;;;;;;;;;;;;;7377874;19;790;-67
2022/12/19 03:03:57;;;;;;;;;;;;;;;;;;7375985;19;820;-66
2022/12/19 03:06:25;;;;;;;;;;;;;;;;;;7370424;19;791;-66
2022/12/19 03:08:53;;;;;;;;;;;;;;;;;;7365897;19;1282;-65
2022/12/19 03:11:21;;;;;;;;;;;;;;;;;;7369509;19;2174;-65
2022/12/19 03:13:50;;;;;;;;;;;;;;;;;;7370043;19;1894;-65
2022/12/19 03:16:18;;;;;;;;;;;;;;;;;;7365654;19;723;-64
2022/12/19 03:18:46;;;;;;;;;;;;;;;;;;7363202;19;1349;-63
2022/12/19 03:21:14;;;;;;;;;;;;;;;;;;7367185;19;1613;-64
2022/12/19 03:23:42;;;;;;;;;;;;;;;;;;7366147;19;865;-63
2022/12/19 03:26:10;;;;;;;;;;;;;;;;;;7366144;19;748;-63
2022/12/19 03:28:38;;;;;;;;;;;;;;;;;;7363072;19;1345;-64
2022/12/19 03:31:07;;;;;;;;;;;;;;;;;;7365510;19;791;-64
2022/12/19 03:33:35;;;;;;;;;;;;;;;;;;7364882;19;1857;-63
2022/12/19 03:36:03;;;;;;;;;;;;;;;;;;7367285;19;1907;-62
2022/12/19 03:38:31;;;;;;;;;;;;;;;;;;7361534;19;1278;-63
2022/12/19 03:40:59;;;;;;;;;;;;;;;;;;7364961;19;775;-63
2022/12/19 03:43:25;;;;;;;;;;;;;;;;;;7363702;19;799;-64
2022/12/19 03:45:53;;;;;;;;;;;;;;;;;;7364801;19;805;-64
2022/12/19 03:48:24;;;;;;;;;;;;;;;;;;7366102;19;1881;-65
2022/12/19 03:50:52;;;;;;;;;;;;;;;;;;7364843;19;864;-65
2022/12/19 03:53:20;;;;;;;;;;;;;;;;;;7364906;19;1841;-65
2022/12/19 03:55:48;;;;;;;;;;;;;;;;;;7364424;19;859;-64
2022/12/19 03:58:16;;;;;;;;;;;;;;;;;;7362953;19;1322;-64
2022/12/19 04:00:46;;;;;;;;;;;;;;;;;;7364425;19;1789;-65
2022/12/19 04:03:14;;;;;;;;;;;;;;;;;;7364761;19;913;-63
2022/12/19 04:05:42;;;;;;;;;;;;;;;;;;7364574;19;802;-63
2022/12/19 04:08:10;;;;;;;;;;;;;;;;;;7362314;19;1278;-63
2022/12/19 04:10:38;;;;;;;;;;;;;;;;;;7370510;19;815;-64
2022/12/19 04:13:06;;;;;;;;;;;;;;;;;;7370709;19;826;-66
2022/12/19 04:15:34;;;;;;;;;;;;;;;;;;7368703;19;1851;-66
2022/12/19 04:18:02;;;;;;;;;;;;;;;;;;7370017;19;1856;-66
2022/12/19 04:20:31;;;;;;;;;;;;;;;;;;7370342;19;854;-65
2022/12/19 04:22:59;;;;;;;;;;;;;;;;;;7370966;19;885;-66
2022/12/19 04:25:27;;;;;;;;;;;;;;;;;;7370446;19;896;-64
2022/12/19 04:27:55;;;;;;;;;;;;;;;;;;7369408;19;1345;-64
2022/12/19 04:30:23;;;;;;;;;;;;;;;;;;7370312;19;811;-64
2022/12/19 04:32:51;;;;;;;;;;;;;;;;;;7369840;19;795;-65
2022/12/19 04:35:19;;;;;;;;;;;;;;;;;;7372719;19;1841;-64
2022/12/19 04:37:48;;;;;;;;;;;;;;;;;;7368484;19;1357;-64
2022/12/19 04:40:16;;;;;;;;;;;;;;;;;;7370244;19;823;-64
2022/12/19 04:42:44;;;;;;;;;;;;;;;;;;7369067;19;802;-63
2022/12/19 04:45:12;;;;;;;;;;;;;;;;;;7370015;19;819;-63
2022/12/19 04:47:40;;;;;;;;;;;;;;;;;;7368509;19;1330;-63
2022/12/19 04:50:08;;;;;;;;;;;;;;;;;;7370302;19;1846;-64
2022/12/19 04:52:36;;;;;;;;;;;;;;;;;;7369514;19;734;-64
2022/12/19 04:55:04;;;;;;;;;;;;;;;;;;7368611;19;1892;-63
2022/12/19 04:57:33;;;;;;;;;;;;;;;;;;7369191;19;1262;-63
2022/12/19 05:00:02;;;;;;;;;;;;;;;;;;7369071;19;829;-63
2022/12/19 05:02:30;;;;;;;;;;;;;;;;;;7369008;19;802;-63
2022/12/19 05:04:59;;;;;;;;;;;;;;;;;;7368026;19;862;-64
2022/12/19 05:07:27;;;;;;;;;;;;;;;;;;7370979;19;1917;-64
2022/12/19 05:09:55;;;;;;;;;;;;;;;;;;7368265;19;893;-64
2022/12/19 05:12:23;;;;;;;;;;;;;;;;;;7369389;19;787;-64
2022/12/19 05:14:51;;;;;;;;;;;;;;;;;;7367880;19;1841;-64
2022/12/19 05:17:19;;;;;;;;;;;;;;;;;;7371462;19;1856;-64
2022/12/19 05:19:47;;;;;;;;;;;;;;;;;;7365779;19;882;-64
2022/12/19 05:22:15;;;;;;;;;;;;;;;;;;7367800;19;790;-64
2022/12/19 05:24:44;;;;;;;;;;;;;;;;;;7368819;19;803;-63
2022/12/19 05:27:12;;;;;;;;;;;;;;;;;;7368838;19;763;-64
2022/12/19 05:29:40;;;;;;;;;;;;;;;;;;7366311;19;1858;-65
2022/12/19 05:32:08;;;;;;;;;;;;;;;;;;7368629;19;819;-64
2022/12/19 05:34:36;;;;;;;;;;;;;;;;;;7367294;19;1853;-64
2022/12/19 05:37:04;;;;;;;;;;;;;;;;;;7368536;19;806;-64
2022/12/19 05:39:33;;;;;;;;;;;;;;;;;;7364165;19;1212;-66
2022/12/19 05:42:01;;;;;;;;;;;;;;;;;;7368982;19;812;-64
2022/12/19 05:44:30;;;;;;;;;;;;;;;;;;7368048;19;819;-63
2022/12/19 05:46:58;;;;;;;;;;;;;;;;;;7370418;19;1927;-63
2022/12/19 05:49:26;;;;;;;;;;;;;;;;;;7367658;19;1677;-64
2022/12/19 05:51:54;;;;;;;;;;;;;;;;;;7367403;19;780;-64
2022/12/19 05:54:22;;;;;;;;;;;;;;;;;;7366469;19;1855;-64
2022/12/19 05:56:50;;;;;;;;;;;;;;;;;;7368380;19;887;-63
2022/12/19 05:59:18;;;;;;;;;;;;;;;;;;7364625;19;1710;-64
2022/12/19 06:01:46;;;;;;;;;;;;;;;;;;7367767;19;814;-64
2022/12/19 06:04:15;;;;;;;;;;;;;;;;;;7370199;19;1906;-63
2022/12/19 06:06:43;;;;;;;;;;;;;;;;;;7367273;19;803;-62
2022/12/19 06:09:11;;;;;;;;;;;;;;;;;;7363308;19;1303;-63
2022/12/19 06:11:39;;;;;;;;;;;;;;;;;;7367641;19;835;-64
2022/12/19 06:14:07;;;;;;;;;;;;;;;;;;7367274;19;1859;-64
2022/12/19 06:16:35;;;;;;;;;;;;;;;;;;7367065;19;799;-63
2022/12/19 06:19:03;;;;;;;;;;;;;;;;;;7364183;19;1303;-64
2022/12/19 06:21:31;;;;;;;;;;;;;;;;;;7371761;19;2302;-64
2022/12/19 06:24:00;;;;;;;;;;;;;;;;;;7367174;19;1877;-63
2022/12/19 06:26:28;;;;;;;;;;;;;;;;;;7367152;19;870;-66
2022/12/19 06:28:56;;;;;;;;;;;;;;;;;;7364203;19;1281;-65
2022/12/19 06:31:25;;;;;;;;;;;;;;;;;;7364731;19;869;-64
2022/12/19 06:33:53;;;;;;;;;;;;;;;;;;7366984;19;881;-65
2022/12/19 06:36:21;;;;;;;;;;;;;;;;;;7363570;19;1930;-64
2022/12/19 06:38:49;;;;;;;;;;;;;;;;;;7363836;19;1270;-64
2022/12/19 06:43:58;;;;;;;;;;;;;;;;;;7366131;19;776;-63
2022/12/19 06:46:26;;;;;;;;;;;;;;;;;;7366148;19;811;-63
2022/12/19 06:48:54;;;;;;;;;;;;;;;;;;7362734;19;1283;-64
2022/12/19 06:51:22;;;;;;;;;;;;;;;;;;7366545;19;889;-63
2022/12/19 06:53:50;;;;;;;;;;;;;;;;;;7369082;19;1916;-64
2022/12/19 06:56:19;;;;;;;;;;;;;;;;;;7363771;19;1843;-63
2022/12/19 06:58:47;;;;;;;;;;;;;;;;;;7364429;19;1262;-65
2022/12/19 07:01:15;;;;;;;;;;;;;;;;;;7368272;19;1863;-63
2022/12/19 07:03:43;;;;;;;;;;;;;;;;;;7370778;19;1909;-65
2022/12/19 07:06:12;;;;;;;;;;;;;;;;;;7368073;19;814;-64
2022/12/19 07:08:40;;;;;;;;;;;;;;;;;;7364366;19;1349;-64
2022/12/19 07:11:08;;;;;;;;;;;;;;;;;;7371537;19;1863;-65
2022/12/19 07:13:36;;;;;;;;;;;;;;;;;;7366841;19;819;-64
2022/12/19 07:16:04;;;;;;;;;;;;;;;;;;7364981;19;1843;-64
2022/12/19 07:18:33;;;;;;;;;;;;;;;;;;7363917;19;1354;-65
2022/12/19 07:21:01;;;;;;;;;;;;;;;;;;7370380;19;1891;-65
2022/12/19 07:23:29;;;;;;;;;;;;;;;;;;7367126;19;865;-65
2022/12/19 07:25:57;;;;;;;;;;;;;;;;;;7366558;19;806;-65
2022/12/19 07:28:25;;;;;;;;;;;;;;;;;;7364557;19;1318;-65
2022/12/19 07:30:53;;;;;;;;;;;;;;;;;;7366655;19;804;-64
2022/12/19 07:33:21;;;;;;;;;;;;;;;;;;7366170;19;1643;-65
2022/12/19 07:35:51;;;;;;;;;;;;;;;;;;7364964;19;1834;-64
2022/12/19 07:38:19;;;;;;;;;;;;;;;;;;7364682;19;1365;-65
2022/12/19 07:40:47;;;;;;;;;;;;;;;;;;7366278;19;800;-65
2022/12/19 07:43:15;;;;;;;;;;;;;;;;;;7366621;19;745;-65
2022/12/19 07:45:44;;;;;;;;;;;;;;;;;;7371271;19;786;-65
2022/12/19 07:48:12;;;;;;;;;;;;;;;;;;7371705;19;1288;-66
2022/12/19 07:50:40;;;;;;;;;;;;;;;;;;7374169;19;1865;-64
2022/12/19 07:53:08;;;;;;;;;;;;;;;;;;7372383;19;858;-66
2022/12/19 07:55:36;;;;;;;;;;;;;;;;;;7369951;19;1858;-66
2022/12/19 07:58:04;;;;;;;;;;;;;;;;;;7370873;19;1302;-66
2022/12/19 08:00:33;;;;;;;;;;;;;;;;;;7372249;19;802;-65
2022/12/19 08:03:01;;;;;;;;;;;;;;;;;;7372057;19;858;-66
2022/12/19 08:05:29;;;;;;;;;;;;;;;;;;7372105;19;824;-65
2022/12/19 08:07:57;;;;;;;;;;;;;;;;;;7372405;19;1879;-65
2022/12/19 08:10:25;;;;;;;;;;;;;;;;;;7374857;19;1494;-65
2022/12/19 08:12:54;;;;;;;;;;;;;;;;;;7372012;19;831;-65
2022/12/19 08:15:22;;;;;;;;;;;;;;;;;;7373792;19;1849;-65
2022/12/19 08:17:50;;;;;;;;;;;;;;;;;;7368377;19;1487;-65
2022/12/19 08:20:18;;;;;;;;;;;;;;;;;;7369959;19;847;-66
2022/12/19 08:22:46;;;;;;;;;;;;;;;;;;7372139;19;770;-65
2022/12/19 08:25:14;;;;;;;;;;;;;;;;;;7375545;19;1843;-65
2022/12/19 08:27:42;;;;;;;;;;;;;;;;;;7369922;19;1274;-65
2022/12/19 08:30:12;;;;;;;;;;;;;;;;;;7371655;19;748;-65
2022/12/19 08:32:40;;;;;;;;;;;;;;;;;;7373537;19;1735;-65
2022/12/19 08:35:09;;;;;;;;;;;;;;;;;;7374860;19;1884;-65
2022/12/19 08:37:37;;;;;;;;;;;;;;;;;;7371829;19;1282;-65
2022/12/19 08:40:05;;;;;;;;;;;;;;;;;;7372637;19;830;-66
2022/12/19 08:42:33;;;;;;;;;;;;;;;;;;7373508;19;1819;-66
2022/12/19 08:45:02;;;;;;;;;;;;;;;;;;7371986;19;818;-65
2022/12/19 08:47:30;;;;;;;;;;;;;;;;;;7371262;19;1836;-66
2022/12/19 08:49:58;;;;;;;;;;;;;;;;;;7371953;19;890;-66
2022/12/19 08:52:26;;;;;;;;;;;;;;;;;;7372307;19;787;-65
2022/12/19 08:54:54;;;;;;;;;;;;;;;;;;7370925;19;2144;-64
2022/12/19 08:57:22;;;;;;;;;;;;;;;;;;7371026;19;1282;-65
2022/12/19 08:59:51;;;;;;;;;;;;;;;;;;7369831;19;717;-65
2022/12/19 09:02:19;;;;;;;;;;;;;;;;;;7370553;19;911;-65
2022/12/19 09:04:47;;;;;;;;;;;;;;;;;;7373936;19;1829;-65
2022/12/19 09:07:15;;;;;;;;;;;;;;;;;;7372935;19;1881;-66
2022/12/19 09:09:43;;;;;;;;;;;;;;;;;;7369640;19;751;-65
2022/12/19 09:12:12;;;;;;;;;;;;;;;;;;7370597;19;826;-64
2022/12/19 09:14:40;;;;;;;;;;;;;;;;;;7369362;19;822;-64
2022/12/19 09:17:08;;;;;;;;;;;;;;;;;;7367845;19;1842;-65
2022/12/19 09:19:36;;;;;;;;;;;;;;;;;;7366857;19;1427;-65
2022/12/19 09:22:04;;;;;;;;;;;;;;;;;;7373275;19;1837;-65
2022/12/19 09:24:32;;;;;;;;;;;;;;;;;;7369403;19;859;-65
2022/12/19 09:27:00;;;;;;;;;;;;;;;;;;7369852;19;740;-63
2022/12/19 09:29:29;;;;;;;;;;;;;;;;;;7364770;19;1890;-66
2022/12/19 09:31:57;;;;;;;;;;;;;;;;;;7369383;19;816;-66
2022/12/19 09:34:25;;;;;;;;;;;;;;;;;;7368805;19;826;-65
2022/12/19 09:36:53;;;;;;;;;;;;;;;;;;7367850;19;1849;-67
2022/12/19 09:39:21;;;;;;;;;;;;;;;;;;7369446;19;1621;-67
2022/12/19 09:41:50;;;;;;;;;;;;;;;;;;7368587;19;1769;-64
2022/12/19 09:44:18;;;;;;;;;;;;;;;;;;7371785;19;1806;-64
2022/12/19 09:46:46;;;;;;;;;;;;;;;;;;7371054;19;1820;-62
2022/12/19 09:49:14;;;;;;;;;;;;;;;;;;7365978;19;1276;-63
2022/12/19 09:51:42;;;;;;;;;;;;;;;;;;7368130;19;815;-65
2022/12/19 09:54:11;;;;;;;;;;;;;;;;;;7370027;19;727;-65
2022/12/19 09:56:39;;;;;;;;;;;;;;;;;;7366746;19;1833;-65
2022/12/19 09:59:07;;;;;;;;;;;;;;;;;;7368388;19;1861;-64
2022/12/19 10:01:35;;;;;;;;;;;;;;;;;;7368650;19;816;-64
2022/12/19 10:04:03;;;;;;;;;;;;;;;;;;7368238;19;787;-65
2022/12/19 10:06:31;;;;;;;;;;;;;;;;;;7366703;19;850;-65
2022/12/19 10:09:00;;;;;;;;;;;;;;;;;;7365888;19;1348;-64
2022/12/19 10:11:28;;;;;;;;;;;;;;;;;;7369251;19;791;-66
2022/12/19 10:13:56;;;;;;;;;;;;;;;;;;7371165;19;1852;-63
2022/12/19 10:16:24;;;;;;;;;;;;;;;;;;7367699;19;1923;-62
2022/12/19 10:18:52;;;;;;;;;;;;;;;;;;7366115;19;1369;-64
2022/12/19 10:21:21;;;;;;;;;;;;;;;;;;7368812;19;850;-65
2022/12/19 10:23:49;;;;;;;;;;;;;;;;;;7368435;19;806;-65
2022/12/19 10:26:17;;;;;;;;;;;;;;;;;;7368692;19;874;-65
2022/12/19 10:28:45;;;;;;;;;;;;;;;;;;7366902;19;1944;-65
2022/12/19 10:31:14;;;;;;;;;;;;;;;;;;7368712;19;835;-65
2022/12/19 10:33:42;;;;;;;;;;;;;;;;;;7369488;19;1204;-64
2022/12/19 10:36:10;;;;;;;;;;;;;;;;;;7367344;19;1854;-64
2022/12/19 10:38:38;;;;;;;;;;;;;;;;;;7365990;19;1278;-65
2022/12/19 10:41:06;;;;;;;;;;;;;;;;;;7368170;19;1082;-64
2022/12/19 10:43:35;;;;;;;;;;;;;;;;;;7368814;19;764;-64
2022/12/19 10:46:05;;;;;;;;;;;;;;;;;;7372216;19;1852;-65
2022/12/19 10:48:33;;;;;;;;;;;;;;;;;;7366198;19;1350;-65
2022/12/19 10:51:01;;;;;;;;;;;;;;;;;;7368530;19;812;-65
2022/12/19 10:53:30;;;;;;;;;;;;;;;;;;7369419;19;1867;-65
2022/12/19 10:55:59;;;;;;;;;;;;;;;;;;7370373;19;1855;-65
2022/12/19 10:58:27;;;;;;;;;;;;;;;;;;7368804;19;1737;-65
2022/12/19 11:00:55;;;;;;;;;;;;;;;;;;7372661;19;1831;-65
2022/12/19 11:03:23;;;;;;;;;;;;;;;;;;7368348;19;830;-64
2022/12/19 11:05:51;;;;;;;;;;;;;;;;;;7369184;19;1679;-62
2022/12/19 11:08:20;;;;;;;;;;;;;;;;;;7366097;19;1426;-63
2022/12/19 11:10:48;;;;;;;;;;;;;;;;;;7365999;19;751;-64
2022/12/19 11:13:16;;;;;;;;;;;;;;;;;;7367850;19;861;-64
2022/12/19 11:15:44;;;;;;;;;;;;;;;;;;7366393;19;1848;-64
2022/12/19 11:18:13;;;;;;;;;;;;;;;;;;7366230;19;1667;-63
2022/12/19 11:20:41;;;;;;;;;;;;;;;;;;7370505;19;1748;-62
2022/12/19 11:23:09;;;;;;;;;;;;;;;;;;7367164;19;1901;-63
2022/12/19 11:25:37;;;;;;;;;;;;;;;;;;7368614;19;1934;-63
2022/12/19 11:28:05;;;;;;;;;;;;;;;;;;7367020;19;1715;-64
2022/12/19 11:30:33;;;;;;;;;;;;;;;;;;7368961;19;1669;-63
2022/12/19 11:33:01;;;;;;;;;;;;;;;;;;7370248;19;1871;-64
2022/12/19 11:35:30;;;;;;;;;;;;;;;;;;7369553;19;1823;-64
2022/12/19 11:37:58;;;;;;;;;;;;;;;;;;7365401;19;1972;-64
2022/12/19 11:40:26;;;;;;;;;;;;;;;;;;7367052;19;1837;-63
2022/12/19 11:42:54;;;;;;;;;;;;;;;;;;7370683;19;2181;-64
2022/12/19 11:45:22;;;;;;;;;;;;;;;;;;7368480;19;1840;-63
2022/12/19 11:47:50;;;;;;;;;;;;;;;;;;7367070;19;1873;-63
2022/12/19 11:50:19;;;;;;;;;;;;;;;;;;7366849;19;1906;-64
2022/12/19 11:52:47;;;;;;;;;;;;;;;;;;7369168;19;1856;-63
2022/12/19 11:55:15;;;;;;;;;;;;;;;;;;7370502;19;1829;-62
2022/12/19 11:57:43;;;;;;;;;;;;;;;;;;7362883;19;1842;-64
2022/12/19 12:00:12;;;;;;;;;;;;;;;;;;7367737;19;1640;-63
2022/12/19 12:02:40;;;;;;;;;;;;;;;;;;7365983;19;735;-64
2022/12/19 12:05:08;;;;;;;;;;;;;;;;;;7369863;19;1881;-64
2022/12/19 12:07:36;;;;;;;;;;;;;;;;;;7367089;19;1867;-64
2022/12/19 12:10:04;;;;;;;;;;;;;;;;;;7369160;19;1831;-63
2022/12/19 12:12:32;;;;;;;;;;;;;;;;;;7370074;19;1734;-63
2022/12/19 12:15:01;;;;;;;;;;;;;;;;;;7368469;19;1735;-60
2022/12/19 12:17:29;;;;;;;;;;;;;;;;;;7363874;19;1848;-63
2022/12/19 12:19:57;;;;;;;;;;;;;;;;;;7364975;19;1909;-64
2022/12/19 12:22:25;;;;;;;;;;;;;;;;;;7369806;19;1662;-61
2022/12/19 12:24:53;;;;;;;;;;;;;;;;;;7368858;19;1954;-61
2022/12/19 12:27:22;;;;;;;;;;;;;;;;;;7368697;19;1875;-63
2022/12/19 12:29:50;;;;;;;;;;;;;;;;;;7367405;19;1662;-64
2022/12/19 12:32:19;;;;;;;;;;;;;;;;;;7374502;19;1926;-65
2022/12/19 12:34:48;;;;;;;;;;;;;;;;;;7374329;19;1859;-63
2022/12/19 12:37:16;;;;;;;;;;;;;;;;;;7370961;19;1841;-63
2022/12/19 12:39:44;;;;;;;;;;;;;;;;;;7373398;19;1879;-63
2022/12/19 12:42:12;;;;;;;;;;;;;;;;;;7376153;19;1850;-63
2022/12/19 12:44:40;;;;;;;;;;;;;;;;;;7374128;19;1819;-64
2022/12/19 12:47:08;;;;;;;;;;;;;;;;;;7372682;19;1754;-62
2022/12/19 12:49:36;;;;;;;;;;;;;;;;;;7370001;19;1926;-63
2022/12/19 12:52:04;;;;;;;;;;;;;;;;;;7375178;19;2134;-64
2022/12/19 12:54:33;;;;;;;;;;;;;;;;;;7374949;19;1741;-63
2022/12/19 12:57:01;;;;;;;;;;;;;;;;;;7388612;19;1876;-62
2022/12/19 12:59:29;;;;;;;;;;;;;;;;;;7383058;19;1730;-61
2022/12/19 13:01:57;;;;;;;;;;;;;;;;;;7385123;19;1721;-64
2022/12/19 13:04:25;;;;;;;;;;;;;;;;;;7386558;19;1734;-64
2022/12/19 13:06:53;;;;;;;;;;;;;;;;;;7388412;19;1904;-61
2022/12/19 13:09:21;;;;;;;;;;;;;;;;;;7380982;19;1607;-62
2022/12/19 13:14:30;;;;;;;;;;;;;;;;;;7385377;19;1778;-64
2022/12/19 13:16:58;;;;;;;;;;;;;;;;;;7384592;19;1814;-64
2022/12/19 13:19:26;;;;;;;;;;;;;;;;;;7380106;19;1770;-62
2022/12/19 13:21:55;;;;;;;;;;;;;;;;;;7376644;19;874;-62
2022/12/19 13:24:23;;;;;;;;;;;;;;;;;;7371170;19;1882;-64
2022/12/19 13:26:51;;;;;;;;;;;;;;;;;;7375070;19;1796;-63
2022/12/19 13:29:19;;;;;;;;;;;;;;;;;;7371440;19;1921;-63
2022/12/19 13:31:47;;;;;;;;;;;;;;;;;;7375112;19;1860;-65
2022/12/19 13:34:15;;;;;;;;;;;;;;;;;;7371426;19;881;-63
2022/12/19 13:36:43;;;;;;;;;;;;;;;;;;7377076;19;2020;-64
2022/12/19 13:39:12;;;;;;;;;;;;;;;;;;7369087;19;1341;-64
2022/12/19 13:44:20;;;;;;;;;;;;;;;;;;7371220;19;1742;-64
2022/12/19 13:46:48;;;;;;;;;;;;;;;;;;7374292;19;1762;-64
2022/12/19 13:49:17;;;;;;;;;;;;;;;;;;7370074;19;1880;-64
2022/12/19 13:51:45;;;;;;;;;;;;;;;;;;7374399;19;914;-64
2022/12/19 13:54:13;;;;;;;;;;;;;;;;;;7369328;19;808;-64
2022/12/19 13:56:42;;;;;;;;;;;;;;;;;;7374062;19;1942;-65
2022/12/19 13:59:10;;;;;;;;;;;;;;;;;;7369239;19;1865;-65
2022/12/19 14:01:38;;;;;;;;;;;;;;;;;;7372896;19;1840;-65
2022/12/19 14:04:07;;;;;;;;;;;;;;;;;;7369703;19;867;-65
2022/12/19 14:06:35;;;;;;;;;;;;;;;;;;7373465;19;1750;-65
2022/12/19 14:09:03;;;;;;;;;;;;;;;;;;7365664;19;1251;-64
2022/12/19 14:11:31;;;;;;;;;;;;;;;;;;7373707;19;1745;-64
2022/12/19 14:16:40;;;;;;;;;;;;;;;;;;7373061;19;1849;-63
2022/12/19 14:19:08;;;;;;;;;;;;;;;;;;7366015;19;1212;-65
2022/12/19 14:21:37;;;;;;;;;;;;;;;;;;7373065;19;1831;-65
2022/12/19 14:24:05;;;;;;;;;;;;;;;;;;7369250;19;1834;-64
2022/12/19 14:26:33;;;;;;;;;;;;;;;;;;7371633;19;1741;-64
2022/12/19 14:29:01;;;;;;;;;;;;;;;;;;7369091;19;2094;-64
2022/12/19 14:31:31;;;;;;;;;;;;;;;;;;7370479;19;1877;-64
2022/12/19 14:33:59;;;;;;;;;;;;;;;;;;7369582;19;1773;-64
2022/12/19 14:36:28;;;;;;;;;;;;;;;;;;7371834;19;1846;-65
2022/12/19 14:38:56;;;;;;;;;;;;;;;;;;7365661;19;1342;-64
2022/12/19 14:43:37;;;;;;;;;;;;;;;;;;7371803;19;1759;-64
2022/12/19 14:44:09;;;;;;;;;;;;;;;;;;7368337;19;1789;-64
2022/12/19 14:46:38;;;;;;;;;;;;;;;;;;7370276;19;1847;-64
2022/12/19 14:49:06;;;;;;;;;;;;;;;;;;7365004;19;1284;-64
2022/12/19 14:51:34;;;;;;;;;;;;;;;;;;7370800;19;1897;-63
2022/12/19 14:54:02;;;;;;;;;;;;;;;;;;7370297;19;1897;-63
2022/12/19 14:56:30;;;;;;;;;;;;;;;;;;7372410;19;1646;-64
2022/12/19 14:58:59;;;;;;;;;;;;;;;;;;7363297;19;1861;-64
2022/12/19 15:01:27;;;;;;;;;;;;;;;;;;7367182;19;827;-64
2022/12/19 15:03:55;;;;;;;;;;;;;;;;;;7367476;19;855;-64
2022/12/19 15:06:23;;;;;;;;;;;;;;;;;;7365666;19;1885;-64
2022/12/19 15:08:51;;;;;;;;;;;;;;;;;;7365753;19;1917;-65
2022/12/19 15:14:00;;;;;;;;;;;;;;;;;;7367111;19;750;-64
2022/12/19 15:16:28;;;;;;;;;;;;;;;;;;7367806;19;846;-65
2022/12/19 15:18:56;;;;;;;;;;;;;;;;;;7363049;19;1841;-64
2022/12/19 15:21:25;;;;;;;;;;;;;;;;;;7369132;19;1855;-64
2022/12/19 15:23:53;;;;;;;;;;;;;;;;;;7369780;19;1976;-64
2022/12/19 15:26:21;;;;;;;;;;;;;;;;;;7367481;19;823;-64
2022/12/19 15:28:49;;;;;;;;;;;;;;;;;;7364566;19;1750;-64
2022/12/19 15:31:17;;;;;;;;;;;;;;;;;;7367966;19;806;-64
2022/12/19 15:33:46;;;;;;;;;;;;;;;;;;7365198;19;781;-64
2022/12/19 15:36:14;;;;;;;;;;;;;;;;;;7367519;19;787;-62
2022/12/19 15:38:42;;;;;;;;;;;;;;;;;;7364301;19;1843;-63
2022/12/19 15:41:10;;;;;;;;;;;;;;;;;;7366984;19;760;-64
2022/12/19 15:43:38;;;;;;;;;;;;;;;;;;7367232;19;894;-63
2022/12/19 15:46:06;;;;;;;;;;;;;;;;;;7366646;19;712;-63
2022/12/19 15:48:34;;;;;;;;;;;;;;;;;;7365019;19;1266;-64
2022/12/19 15:51:02;;;;;;;;;;;;;;;;;;7365982;19;795;-65
2022/12/19 15:53:31;;;;;;;;;;;;;;;;;;7366913;19;1027;-64
2022/12/19 15:55:59;;;;;;;;;;;;;;;;;;7366679;19;815;-64
2022/12/19 15:58:28;;;;;;;;;;;;;;;;;;7362927;19;1861;-65
2022/12/19 16:00:57;;;;;;;;;;;;;;;;;;7366564;19;872;-64
2022/12/19 16:03:25;;;;;;;;;;;;;;;;;;7365087;19;805;-65
2022/12/19 16:05:53;;;;;;;;;;;;;;;;;;7369485;19;773;-64
2022/12/19 16:08:21;;;;;;;;;;;;;;;;;;7369949;19;1203;-65
2022/12/19 16:10:49;;;;;;;;;;;;;;;;;;7371060;19;806;-65
2022/12/19 16:13:18;;;;;;;;;;;;;;;;;;7371506;19;865;-65
2022/12/19 16:15:46;;;;;;;;;;;;;;;;;;7371912;19;845;-64
2022/12/19 16:18:14;;;;;;;;;;;;;;;;;;7369151;19;1858;-65
2022/12/19 16:20:42;;;;;;;;;;;;;;;;;;7370912;19;837;-65
2022/12/19 16:23:10;;;;;;;;;;;;;;;;;;7371479;19;766;-65
2022/12/19 16:25:38;;;;;;;;;;;;;;;;;;7370777;19;797;-65
2022/12/19 16:28:06;;;;;;;;;;;;;;;;;;7369679;19;1274;-66
2022/12/19 16:30:35;;;;;;;;;;;;;;;;;;7371367;19;854;-64
2022/12/19 16:33:03;;;;;;;;;;;;;;;;;;7370979;19;834;-63
2022/12/19 16:35:31;;;;;;;;;;;;;;;;;;7369378;19;841;-64
2022/12/19 16:37:59;;;;;;;;;;;;;;;;;;7368051;19;1830;-64
2022/12/19 16:40:27;;;;;;;;;;;;;;;;;;7370751;19;817;-64
2022/12/19 16:42:55;;;;;;;;;;;;;;;;;;7370068;19;874;-64
2022/12/19 16:45:24;;;;;;;;;;;;;;;;;;7368380;19;968;-64
2022/12/19 16:47:52;;;;;;;;;;;;;;;;;;7368844;19;1338;-65
2022/12/19 16:50:20;;;;;;;;;;;;;;;;;;7370772;19;819;-64
2022/12/19 16:52:48;;;;;;;;;;;;;;;;;;7370768;19;882;-64
2022/12/19 16:55:16;;;;;;;;;;;;;;;;;;7370768;19;835;-64
2022/12/19 16:57:44;;;;;;;;;;;;;;;;;;7367452;19;1853;-65
2022/12/19 17:00:12;;;;;;;;;;;;;;;;;;7371112;19;799;-63
2022/12/19 17:02:41;;;;;;;;;;;;;;;;;;7370200;19;799;-64
2022/12/19 17:05:09;;;;;;;;;;;;;;;;;;7370216;19;854;-65
2022/12/19 17:07:37;;;;;;;;;;;;;;;;;;7369629;19;1286;-65
2022/12/19 17:10:05;;;;;;;;;;;;;;;;;;7369722;19;791;-66
2022/12/19 17:12:33;;;;;;;;;;;;;;;;;;7369883;19;844;-66
2022/12/19 17:15:01;;;;;;;;;;;;;;;;;;7370982;19;868;-66
2022/12/19 17:17:30;;;;;;;;;;;;;;;;;;7368750;19;1850;-65
2022/12/19 17:19:58;;;;;;;;;;;;;;;;;;7369325;19;796;-65
2022/12/19 17:22:26;;;;;;;;;;;;;;;;;;7370424;19;806;-65
2022/12/19 17:24:54;;;;;;;;;;;;;;;;;;7369744;19;799;-65
2022/12/19 17:27:22;;;;;;;;;;;;;;;;;;7370041;19;1302;-65
2022/12/19 17:29:50;;;;;;;;;;;;;;;;;;7369106;19;849;-65
2022/12/19 17:32:19;;;;;;;;;;;;;;;;;;7369338;19;801;-65